Time;durP1;ratioP1;P1;durP2;ratioP2;P2;SDS_P1;SDS_P2;PMS_P1;PMS_P2;Temp;Humidity;BMP_temperature;BMP_pressure;BME280_temperature;BME280_humidity;BME280_pressure;Samples;Min_cycle;Max_cycle;Signal;HPM_P1;HPM_P2
2023/04/22 00:01:14;;;;;;;15.98;11.32;;;;;;;12.76;49.53;98851.53;5067988;28;20095;-73
2023/04/22 00:03:41;;;;;;;15.98;9.93;;;;;;;12.68;49.55;98846.78;5067966;28;20196;-74
2023/04/22 00:06:07;;;;;;;15.13;10.35;;;;;;;12.69;49.73;98851.13;5067280;28;20049;-74
2023/04/22 00:08:34;;;;;;;12.55;9.93;;;;;;;12.64;49.58;98849.78;5067943;28;20044;-73
2023/04/22 00:11:03;;;;;;;17.33;11.35;;;;;;;12.03;49.90;98747.81;5067565;28;20051;-72
2023/04/22 00:13:29;;;;;;;15.02;9.73;;;;;;;12.62;49.65;98849.03;5067287;28;20041;-72
2023/04/22 00:15:56;;;;;;;14.15;9.82;;;;;;;12.62;49.91;98851.69;5067713;28;20040;-72
2023/04/22 00:18:23;;;;;;;11.07;9.10;;;;;;;12.38;50.05;98817.91;5067629;28;20047;-73
2023/04/22 00:20:49;;;;;;;13.07;9.90;;;;;;;12.41;49.98;98841.63;5067635;28;20307;-72
2023/04/22 00:23:16;;;;;;;13.85;10.82;;;;;;;12.50;50.03;98853.41;5067759;28;20366;-72
2023/04/22 00:25:43;;;;;;;12.00;9.00;;;;;;;12.32;50.32;98814.84;5066768;28;20295;-73
2023/04/22 00:28:11;;;;;;;15.23;9.30;;;;;;;12.47;50.40;98851.81;5067224;28;20052;-73
2023/04/22 00:30:38;;;;;;;15.27;9.43;;;;;;;12.08;50.44;98797.00;5066268;28;20086;-73
2023/04/22 00:33:04;;;;;;;12.88;9.18;;;;;;;12.39;50.54;98854.16;5067304;28;20044;-73
2023/04/22 00:35:31;;;;;;;11.25;9.13;;;;;;;12.37;50.50;98858.75;5067373;28;20229;-73
2023/04/22 00:37:58;;;;;;;13.23;9.48;;;;;;;12.36;50.52;98853.53;5067013;28;20182;-72
2023/04/22 00:40:25;;;;;;;13.05;9.57;;;;;;;12.31;50.53;98845.03;5067003;28;20041;-73
2023/04/22 00:42:51;;;;;;;13.23;9.00;;;;;;;12.27;50.70;98851.53;5066880;28;20281;-73
2023/04/22 00:45:20;;;;;;;17.73;9.48;;;;;;;12.05;50.91;98806.97;5066735;28;20071;-72
2023/04/22 00:47:48;;;;;;;14.25;9.30;;;;;;;12.25;51.03;98851.63;5066855;28;20188;-73
2023/04/22 00:50:14;;;;;;;13.35;8.35;;;;;;;12.24;50.86;98841.09;5066795;28;20043;-72
2023/04/22 00:52:41;;;;;;;13.52;9.85;;;;;;;12.20;51.07;98845.78;5066594;28;20063;-73
2023/04/22 00:55:08;;;;;;;12.43;9.27;;;;;;;12.16;51.03;98841.63;5066652;28;20051;-73
2023/04/22 00:57:36;;;;;;;11.48;8.50;;;;;;;11.86;51.04;98799.41;5067124;28;20047;-72
2023/04/22 01:00:05;;;;;;;14.93;9.27;;;;;;;12.09;51.73;98837.69;5066840;28;20045;-72
2023/04/22 01:02:33;;;;;;;12.45;8.32;;;;;;;12.05;51.30;98844.16;5066551;28;20049;-72
2023/04/22 01:05:01;;;;;;;12.68;8.57;;;;;;;11.87;51.28;98814.38;5066774;28;20041;-72
2023/04/22 01:07:27;;;;;;;15.20;8.90;;;;;;;11.85;51.25;98806.53;5066703;28;20102;-73
2023/04/22 01:09:54;;;;;;;13.50;10.10;;;;;;;12.00;51.51;98847.13;5066423;28;20052;-73
2023/04/22 01:12:21;;;;;;;11.43;8.50;;;;;;;11.95;51.40;98835.94;5066390;28;20281;-73
2023/04/22 01:14:47;;;;;;;15.60;8.85;;;;;;;11.98;51.15;98837.53;5066592;28;20118;-72
2023/04/22 01:17:15;;;;;;;11.63;8.60;;;;;;;11.99;51.43;98839.25;5065971;28;20041;-72
2023/04/22 01:19:44;;;;;;;11.40;8.35;;;;;;;11.92;51.55;98851.25;5066216;28;20107;-73
2023/04/22 01:22:13;;;;;;;11.65;8.80;;;;;;;11.91;51.84;98844.22;5066155;28;20083;-72
2023/04/22 01:24:41;;;;;;;14.05;9.50;;;;;;;11.88;51.77;98843.50;5066142;28;20288;-73
2023/04/22 01:27:08;;;;;;;11.57;8.38;;;;;;;11.85;51.74;98849.00;5066110;28;20045;-72
2023/04/22 01:29:36;;;;;;;11.63;8.48;;;;;;;11.86;51.82;98850.72;5066636;28;20037;-73
2023/04/22 01:32:03;;;;;;;10.88;8.23;;;;;;;11.83;51.42;98842.09;5065969;28;20325;-72
2023/04/22 01:34:31;;;;;;;15.80;9.13;;;;;;;11.78;52.04;98849.53;5065999;28;20208;-72
2023/04/22 01:36:58;;;;;;;11.27;8.60;;;;;;;11.74;52.02;98846.22;5064876;28;20041;-73
2023/04/22 01:39:25;;;;;;;11.13;8.52;;;;;;;11.10;51.89;98735.63;5065871;28;20041;-73
2023/04/22 01:41:54;;;;;;;14.18;9.60;;;;;;;11.72;52.17;98847.28;5066389;28;20048;-73
2023/04/22 01:44:21;;;;;;;12.40;7.97;;;;;;;11.70;52.16;98846.53;5065798;28;20083;-73
2023/04/22 01:46:48;;;;;;;12.27;8.45;;;;;;;11.53;52.32;98824.66;5066051;28;20116;-73
2023/04/22 01:49:14;;;;;;;10.45;8.00;;;;;;;11.69;52.18;98835.06;5066276;28;20102;-72
2023/04/22 01:51:41;;;;;;;14.52;8.45;;;;;;;11.71;51.96;98837.63;5065951;28;20182;-73
2023/04/22 01:54:09;;;;;;;11.43;8.30;;;;;;;11.29;52.05;98775.88;5065535;28;20045;-72
2023/04/22 01:56:37;;;;;;;8.68;7.78;;;;;;;11.67;51.85;98839.63;5065629;28;20048;-72
2023/04/22 01:59:05;;;;;;;10.35;7.53;;;;;;;11.63;52.08;98835.50;5065874;28;20293;-73
2023/04/22 02:01:32;;;;;;;10.65;6.68;;;;;;;11.25;51.93;98779.69;5065546;28;20217;-72
2023/04/22 02:03:59;;;;;;;13.20;8.15;;;;;;;11.64;51.88;98842.50;5066046;28;20106;-73
2023/04/22 02:06:26;;;;;;;10.30;7.30;;;;;;;11.59;52.07;98835.81;5065796;28;20047;-73
2023/04/22 02:08:53;;;;;;;11.02;7.38;;;;;;;11.52;52.25;98840.66;5065435;28;20204;-73
2023/04/22 02:11:20;;;;;;;11.43;7.90;;;;;;;11.54;52.32;98836.13;5065417;28;20036;-73
2023/04/22 02:13:46;;;;;;;8.73;6.97;;;;;;;11.51;52.17;98833.66;5065330;28;20347;-73
2023/04/22 02:16:14;;;;;;;12.55;8.63;;;;;;;11.48;52.67;98837.38;5065671;28;20104;-73
2023/04/22 02:18:41;;;;;;;8.90;8.00;;;;;;;8.08;52.28;98275.47;5065694;28;20045;-73
2023/04/22 02:21:08;;;;;;;10.85;7.90;;;;;;;11.43;52.46;98836.84;5065318;28;20039;-73
2023/04/22 02:23:35;;;;;;;12.50;7.95;;;;;;;11.44;52.50;98835.88;5065579;28;20057;-73
2023/04/22 02:26:02;;;;;;;9.95;8.02;;;;;;;11.47;52.67;98833.03;5065507;28;20167;-72
2023/04/22 02:28:29;;;;;;;8.73;7.68;;;;;;;7.89;52.35;98236.19;5065238;28;20060;-73
2023/04/22 02:30:56;;;;;;;9.38;7.40;;;;;;;11.48;52.44;98831.22;5065216;28;20049;-72
2023/04/22 02:33:24;;;;;;;8.82;7.40;;;;;;;11.48;52.51;98828.56;5065052;28;20045;-73
2023/04/22 02:35:50;;;;;;;12.60;9.02;;;;;;;11.45;52.45;98826.97;5065491;28;20078;-72
2023/04/22 02:38:17;;;;;;;10.07;8.00;;;;;;;11.38;52.71;98823.03;5064515;28;20051;-72
2023/04/22 02:40:44;;;;;;;11.68;7.88;;;;;;;11.36;52.85;98830.22;5065432;28;20040;-72
2023/04/22 02:43:10;;;;;;;9.45;7.85;;;;;;;11.37;53.00;98831.94;5065282;28;20100;-71
2023/04/22 02:45:37;;;;;;;9.45;7.28;;;;;;;11.37;52.94;98831.94;5064946;28;20049;-72
2023/04/22 02:48:04;;;;;;;9.10;7.53;;;;;;;11.35;52.94;98841.78;5065396;28;20037;-73
2023/04/22 02:50:32;;;;;;;11.30;7.45;;;;;;;11.15;53.07;98810.44;5067870;28;20045;-73
2023/04/22 02:52:59;;;;;;;12.98;8.60;;;;;;;10.46;52.95;98700.09;5069235;28;20044;-72
2023/04/22 02:55:25;;;;;;;9.00;7.57;;;;;;;11.26;53.17;98828.28;5068958;28;20091;-72
2023/04/22 02:57:52;;;;;;;11.48;7.47;;;;;;;11.26;53.01;98839.75;5069461;28;20095;-72
2023/04/22 03:00:19;;;;;;;13.27;7.90;;;;;;;11.06;53.13;98803.94;5069175;28;20057;-72
2023/04/22 03:02:45;;;;;;;12.23;8.02;;;;;;;11.25;53.22;98832.75;5068886;28;20045;-72
2023/04/22 03:05:12;;;;;;;11.50;7.40;;;;;;;11.15;53.14;98824.53;5068797;28;20049;-72
2023/04/22 03:07:40;;;;;;;9.15;7.57;;;;;;;11.17;53.20;98835.91;5068874;28;20338;-71
2023/04/22 03:10:08;;;;;;;14.65;8.25;;;;;;;10.63;53.25;98768.75;5069274;28;20037;-72
2023/04/22 03:12:34;;;;;;;13.98;7.43;;;;;;;11.11;53.31;98836.31;5068041;28;20256;-72
2023/04/22 03:15:01;;;;;;;10.52;8.23;;;;;;;11.12;53.39;98839.81;5069196;28;20072;-72
2023/04/22 03:17:28;;;;;;;11.73;8.02;;;;;;;11.13;53.37;98833.56;5068873;28;20307;-72
2023/04/22 03:19:55;;;;;;;11.52;7.10;;;;;;;11.10;53.52;98828.44;5068523;28;20048;-73
2023/04/22 03:22:21;;;;;;;10.32;7.63;;;;;;;11.09;53.46;98829.41;5068462;28;20200;-72
2023/04/22 03:24:49;;;;;;;9.45;7.72;;;;;;;11.04;53.44;98832.34;5068500;28;20343;-72
2023/04/22 03:27:16;;;;;;;10.25;7.45;;;;;;;10.86;53.62;98807.03;5068625;28;20071;-72
2023/04/22 03:29:43;;;;;;;9.82;7.43;;;;;;;10.99;53.67;98836.25;5068603;28;20045;-72
2023/04/22 03:32:09;;;;;;;13.27;8.75;;;;;;;10.91;53.87;98840.25;5068490;28;20228;-71
2023/04/22 03:34:36;;;;;;;11.95;8.45;;;;;;;10.90;53.88;98829.75;5068204;28;20041;-72
2023/04/22 03:37:03;;;;;;;11.13;7.80;;;;;;;10.77;53.87;98815.56;5068515;28;20037;-72
2023/04/22 03:39:29;;;;;;;9.32;8.27;;;;;;;10.91;53.96;98839.41;5068247;28;20045;-72
2023/04/22 03:41:57;;;;;;;11.00;8.27;;;;;;;10.72;54.23;98815.84;5068696;28;20040;-71
2023/04/22 03:44:24;;;;;;;9.52;8.02;;;;;;;10.90;54.24;98853.59;5067966;28;20049;-72
2023/04/22 03:46:51;;;;;;;13.00;8.30;;;;;;;10.87;54.20;98844.06;5068310;28;20036;-72
2023/04/22 03:49:17;;;;;;;10.75;7.78;;;;;;;10.86;54.32;98852.97;5068275;28;20053;-72
2023/04/22 03:51:44;;;;;;;11.60;8.07;;;;;;;10.87;54.16;98852.00;5068532;28;20041;-72
2023/04/22 03:54:11;;;;;;;14.55;8.20;;;;;;;10.86;54.14;98850.31;5067830;28;20041;-72
2023/04/22 03:56:37;;;;;;;14.73;8.45;;;;;;;10.86;54.45;98846.81;5066962;28;20036;-72
2023/04/22 03:59:05;;;;;;;10.40;8.25;;;;;;;10.83;54.66;98847.84;5068124;28;20045;-73
2023/04/22 04:01:32;;;;;;;8.95;8.05;;;;;;;10.82;54.42;98846.16;5068334;28;20052;-71
2023/04/22 04:03:59;;;;;;;9.88;7.68;;;;;;;10.79;54.48;98843.69;5067027;28;20201;-73
2023/04/22 04:06:25;;;;;;;9.70;8.13;;;;;;;10.80;54.52;98844.53;5068175;28;20045;-73
2023/04/22 04:08:52;;;;;;;14.90;9.20;;;;;;;10.81;54.70;98836.50;5068191;28;20241;-73
2023/04/22 04:11:19;;;;;;;11.75;8.13;;;;;;;10.81;54.71;98836.50;5067679;28;20041;-72
2023/04/22 04:13:46;;;;;;;11.88;9.18;;;;;;;10.81;54.58;98846.25;5067476;28;20065;-72
2023/04/22 04:16:14;;;;;;;11.63;8.98;;;;;;;10.77;54.88;98842.06;5067752;28;20091;-72
2023/04/22 04:18:40;;;;;;;12.27;9.95;;;;;;;10.76;54.98;98850.97;5067990;28;20086;-72
2023/04/22 04:21:07;;;;;;;13.10;9.95;;;;;;;10.74;54.97;98848.41;5067673;28;20343;-72
2023/04/22 04:23:34;;;;;;;12.98;9.98;;;;;;;10.50;55.08;98815.53;5067270;28;20032;-72
2023/04/22 04:26:04;;;;;;;9.00;7.80;;;;;;;10.64;55.35;98844.66;5067585;28;20045;-72
2023/04/22 04:28:33;;;;;;;12.48;9.93;;;;;;;10.68;55.09;98847.94;5067514;28;20045;-72
2023/04/22 04:31:01;;;;;;;11.07;9.57;;;;;;;10.71;55.25;98853.06;5067509;28;20048;-73
2023/04/22 04:33:30;;;;;;;11.65;9.02;;;;;;;10.31;55.36;98789.34;5067370;28;20041;-72
2023/04/22 04:35:58;;;;;;;12.77;8.95;;;;;;;10.63;55.63;98852.69;5067693;28;20104;-73
2023/04/22 04:38:25;;;;;;;13.38;8.93;;;;;;;10.64;55.59;98851.75;5067327;28;20051;-73
2023/04/22 04:40:53;;;;;;;13.65;9.82;;;;;;;10.66;55.67;98847.19;5066997;28;20051;-73
2023/04/22 04:43:20;;;;;;;11.05;8.52;;;;;;;10.66;55.58;98855.16;5067467;28;20044;-72
2023/04/22 04:45:47;;;;;;;13.27;8.43;;;;;;;10.66;55.79;98852.50;5066737;28;20056;-72
2023/04/22 04:48:14;;;;;;;11.82;10.27;;;;;;;10.68;55.76;98858.53;5067124;28;20281;-72
2023/04/22 04:50:43;;;;;;;11.68;8.38;;;;;;;10.71;55.81;98853.91;5066799;28;20064;-72
2023/04/22 04:53:10;;;;;;;12.70;9.85;;;;;;;10.73;55.61;98857.31;5067084;28;20041;-72
2023/04/22 04:55:37;;;;;;;12.00;9.15;;;;;;;10.73;55.77;98854.66;5067006;28;20048;-72
2023/04/22 04:58:04;;;;;;;11.95;9.07;;;;;;;10.72;55.58;98858.25;5066667;28;20044;-73
2023/04/22 05:00:30;;;;;;;12.25;10.73;;;;;;;9.63;55.78;98680.66;5066943;28;20070;-72
2023/04/22 05:02:57;;;;;;;14.77;10.57;;;;;;;10.73;56.43;98867.06;5066587;28;20135;-72
2023/04/22 05:05:24;;;;;;;11.75;9.80;;;;;;;10.74;56.12;98866.13;5066957;28;20333;-72
2023/04/22 05:07:52;;;;;;;11.73;10.00;;;;;;;10.44;56.09;98810.59;5066478;28;20041;-72
2023/04/22 05:10:19;;;;;;;12.23;9.73;;;;;;;10.76;56.00;98859.75;5066742;28;20112;-72
2023/04/22 05:12:46;;;;;;;14.02;10.27;;;;;;;10.79;56.44;98862.25;5066411;28;20158;-72
2023/04/22 05:15:14;;;;;;;12.88;9.43;;;;;;;10.81;56.18;98870.09;5065451;28;20037;-72
2023/04/22 05:17:40;;;;;;;12.10;9.18;;;;;;;10.84;55.94;98869.91;5066262;28;20352;-72
2023/04/22 05:20:08;;;;;;;13.68;8.95;;;;;;;10.86;55.97;98884.78;5066794;28;20045;-72
2023/04/22 05:22:36;;;;;;;12.43;9.43;;;;;;;10.88;55.82;98872.28;5066316;28;20082;-72
2023/04/22 05:25:08;;;;;;;12.73;8.85;;;;;;;10.66;56.49;98832.16;5066276;28;20041;-72
2023/04/22 05:27:34;;;;;;;12.73;9.88;;;;;;;10.71;55.76;98834.50;5066271;28;20114;-73
2023/04/22 05:30:01;;;;;;;9.90;7.97;;;;;;;10.96;55.87;98868.28;5066199;28;20041;-73
2023/04/22 05:32:28;;;;;;;11.90;9.48;;;;;;;10.98;55.69;98872.53;5066566;28;20059;-73
2023/04/22 05:34:54;;;;;;;11.35;9.25;;;;;;;11.00;56.02;98869.78;5065593;28;20045;-73
2023/04/22 05:37:21;;;;;;;11.57;10.35;;;;;;;11.03;55.95;98865.13;5066055;28;20045;-72
2023/04/22 05:39:48;;;;;;;16.15;11.07;;;;;;;10.91;56.11;98842.06;5066066;28;20051;-72
2023/04/22 05:42:16;;;;;;;15.98;12.93;;;;;;;11.09;56.23;98870.03;5066366;28;20051;-72
2023/04/22 05:44:42;;;;;;;14.38;12.10;;;;;;;11.12;56.36;98872.47;5065607;28;20324;-72
2023/04/22 05:47:09;;;;;;;13.55;11.60;;;;;;;11.16;56.40;98875.78;5066079;28;20060;-72
2023/04/22 05:49:36;;;;;;;12.30;11.10;;;;;;;11.17;56.33;98882.78;5065602;28;20048;-72
2023/04/22 05:52:02;;;;;;;12.70;11.40;;;;;;;11.22;56.00;98873.59;5065798;28;20047;-72
2023/04/22 05:54:29;;;;;;;14.23;11.38;;;;;;;11.27;56.12;98877.75;5065492;28;20041;-72
2023/04/22 05:56:56;;;;;;;15.52;12.27;;;;;;;11.28;56.22;98887.41;5065620;28;20048;-72
2023/04/22 05:59:24;;;;;;;17.60;11.23;;;;;;;11.30;56.03;98881.03;5065616;28;20041;-72
2023/04/22 06:01:51;;;;;;;12.52;11.23;;;;;;;11.15;56.00;98859.03;5066054;28;20055;-72
2023/04/22 06:04:18;;;;;;;16.23;12.07;;;;;;;11.39;56.09;98883.09;5065934;28;20051;-73
2023/04/22 06:06:46;;;;;;;13.93;11.02;;;;;;;11.48;56.50;98889.59;5065938;28;20037;-72
2023/04/22 06:09:13;;;;;;;14.43;11.43;;;;;;;11.18;55.90;98824.34;5065609;28;20045;-71
2023/04/22 06:11:40;;;;;;;12.82;10.45;;;;;;;11.61;55.77;98885.16;5065399;28;20037;-72
2023/04/22 06:14:07;;;;;;;13.70;10.60;;;;;;;11.70;55.35;98889.88;5065540;28;20037;-72
2023/04/22 06:16:35;;;;;;;14.57;10.32;;;;;;;11.78;54.66;98884.03;5065822;28;20048;-72
2023/04/22 06:19:02;;;;;;;12.88;9.50;;;;;;;11.87;54.21;98883.41;5065706;28;20049;-73
2023/04/22 06:21:28;;;;;;;13.43;9.60;;;;;;;11.94;53.46;98884.69;5065832;28;20037;-72
2023/04/22 06:23:55;;;;;;;15.23;8.98;;;;;;;12.03;53.12;98883.25;5064338;28;20048;-72
2023/04/22 06:26:22;;;;;;;10.88;9.52;;;;;;;12.16;52.92;98886.78;5065504;28;20037;-72
2023/04/22 06:28:49;;;;;;;10.77;9.68;;;;;;;12.39;52.74;98882.56;5065174;28;20045;-72
2023/04/22 06:31:16;;;;;;;11.82;9.80;;;;;;;12.61;51.99;98882.75;5064385;28;20182;-72
2023/04/22 06:33:44;;;;;;;12.65;10.15;;;;;;;12.83;51.40;98880.25;5065712;28;20045;-73
2023/04/22 06:36:11;;;;;;;14.23;11.50;;;;;;;12.98;50.77;98866.81;5065277;28;20051;-72
2023/04/22 06:38:37;;;;;;;12.35;9.75;;;;;;;13.34;49.87;98880.06;5064181;28;20052;-73
2023/04/22 06:41:05;;;;;;;14.27;9.93;;;;;;;13.29;49.50;98860.09;5065409;28;20036;-72
2023/04/22 06:43:31;;;;;;;13.65;10.27;;;;;;;13.59;49.12;98878.28;5064919;28;20033;-73
2023/04/22 06:45:58;;;;;;;13.55;10.18;;;;;;;13.90;48.47;98872.31;5065386;28;20037;-72
2023/04/22 06:48:26;;;;;;;13.73;10.38;;;;;;;14.26;48.04;98873.13;5064809;28;20292;-73
2023/04/22 06:50:54;;;;;;;12.70;10.32;;;;;;;14.50;47.55;98865.88;5063993;28;20094;-73
2023/04/22 06:53:20;;;;;;;13.93;9.90;;;;;;;14.75;46.99;98859.50;5065210;28;20052;-73
2023/04/22 06:55:47;;;;;;;14.02;10.30;;;;;;;15.02;46.25;98859.94;5065135;28;20033;-72
2023/04/22 06:58:14;;;;;;;14.70;10.25;;;;;;;15.26;45.80;98859.75;5065005;28;20049;-72
2023/04/22 07:00:40;;;;;;;12.90;10.02;;;;;;;15.47;45.80;98862.47;5064141;28;20063;-72
2023/04/22 07:03:07;;;;;;;15.20;10.30;;;;;;;15.67;45.14;98866.19;5065251;28;20095;-73
2023/04/22 07:05:34;;;;;;;14.20;9.50;;;;;;;15.87;44.50;98868.03;5065078;28;20083;-72
2023/04/22 07:08:02;;;;;;;10.07;8.98;;;;;;;16.12;44.49;98864.13;5065287;28;20045;-72
2023/04/22 07:10:29;;;;;;;14.93;8.60;;;;;;;16.31;43.78;98869.56;5064727;28;20108;-73
2023/04/22 07:12:55;;;;;;;12.35;8.88;;;;;;;16.20;44.06;98850.94;5064712;28;20041;-72
2023/04/22 07:15:22;;;;;;;12.18;9.27;;;;;;;16.37;44.06;98860.16;5064915;28;20057;-73
2023/04/22 07:17:49;;;;;;;13.82;9.73;;;;;;;16.49;43.70;98852.91;5064790;28;20336;-73
2023/04/22 07:20:15;;;;;;;11.40;9.07;;;;;;;16.64;44.02;98854.25;5065275;28;20198;-73
2023/04/22 07:22:42;;;;;;;9.68;8.45;;;;;;;16.58;43.37;98811.97;5065048;28;20248;-73
2023/04/22 07:25:10;;;;;;;12.65;9.55;;;;;;;16.98;43.55;98844.94;5064601;28;20036;-73
2023/04/22 07:27:38;;;;;;;13.15;8.77;;;;;;;16.74;43.16;98774.88;5064568;28;20041;-73
2023/04/22 07:30:07;;;;;;;14.07;8.45;;;;;;;17.48;42.56;98841.38;5064424;28;20053;-73
2023/04/22 07:32:34;;;;;;;10.07;7.32;;;;;;;17.73;42.54;98851.56;5063633;28;20094;-73
2023/04/22 07:35:01;;;;;;;12.70;8.00;;;;;;;17.78;42.19;98851.13;5064729;28;20052;-72
2023/04/22 07:37:27;;;;;;;10.05;7.88;;;;;;;17.85;42.33;98847.75;5068363;28;20293;-73
2023/04/22 07:39:54;;;;;;;9.20;6.80;;;;;;;18.05;42.55;98843.19;5068317;28;20045;-72
2023/04/22 07:42:22;;;;;;;13.43;8.57;;;;;;;18.21;41.90;98839.91;5068414;28;20048;-72
2023/04/22 07:44:49;;;;;;;12.52;8.55;;;;;;;17.43;41.83;98682.91;5067874;28;20049;-72
2023/04/22 07:47:16;;;;;;;17.10;7.60;;;;;;;18.26;41.93;98808.13;5068128;28;20061;-73
2023/04/22 07:49:44;;;;;;;9.63;7.90;;;;;;;18.64;41.42;98835.84;5067861;28;20053;-73
2023/04/22 07:52:11;;;;;;;9.63;7.78;;;;;;;18.70;41.58;98830.72;5067861;28;20041;-73
2023/04/22 07:54:37;;;;;;;10.65;7.07;;;;;;;18.88;41.18;98841.50;5067944;28;20044;-73
2023/04/22 07:57:04;;;;;;;10.45;7.53;;;;;;;19.08;41.05;98831.50;5067634;28;20044;-73
2023/04/22 07:59:32;;;;;;;10.98;7.70;;;;;;;19.29;40.35;98833.91;5067944;28;20045;-73
2023/04/22 08:01:58;;;;;;;10.88;8.23;;;;;;;19.39;40.42;98837.41;5067591;28;20057;-72
2023/04/22 08:04:25;;;;;;;11.27;8.32;;;;;;;19.12;40.44;98804.19;5067768;28;20037;-73
2023/04/22 08:06:53;;;;;;;9.07;7.20;;;;;;;18.94;40.44;98767.56;5067548;28;20041;-73
2023/04/22 08:09:20;;;;;;;11.35;7.55;;;;;;;19.39;40.21;98822.13;5067508;28;20220;-72
2023/04/22 08:11:47;;;;;;;11.65;8.43;;;;;;;19.54;40.10;98828.66;5067369;28;20041;-72
2023/04/22 08:14:13;;;;;;;10.73;7.82;;;;;;;19.69;40.08;98828.09;5067321;28;20052;-73
2023/04/22 08:16:42;;;;;;;12.57;9.20;;;;;;;19.43;39.73;98772.44;5067444;28;20213;-73
2023/04/22 08:19:08;;;;;;;17.25;9.95;;;;;;;19.54;39.89;98782.09;5067901;28;20181;-73
2023/04/22 08:21:36;;;;;;;11.13;8.38;;;;;;;19.97;39.86;98815.41;5066259;28;20217;-73
2023/04/22 08:24:02;;;;;;;9.68;8.48;;;;;;;19.88;40.02;98793.00;5067041;28;20055;-73
2023/04/22 08:26:29;;;;;;;14.40;8.90;;;;;;;20.13;39.69;98819.06;5067202;28;20033;-73
2023/04/22 08:28:56;;;;;;;10.85;8.27;;;;;;;20.29;39.41;98818.34;5067153;28;20051;-73
2023/04/22 08:31:23;;;;;;;11.93;8.13;;;;;;;20.38;39.32;98814.69;5067279;28;20041;-73
2023/04/22 08:33:51;;;;;;;13.32;7.18;;;;;;;20.43;39.41;98833.06;5067276;28;20091;-73
2023/04/22 08:36:20;;;;;;;8.80;6.80;;;;;;;20.49;39.33;98817.13;5066941;28;20041;-73
2023/04/22 08:38:47;;;;;;;8.10;6.82;;;;;;;20.62;39.24;98815.81;5067077;28;20045;-73
2023/04/22 08:41:14;;;;;;;11.23;7.28;;;;;;;20.67;38.67;98819.72;5067557;28;20197;-72
2023/04/22 08:43:41;;;;;;;11.02;7.13;;;;;;;20.72;38.92;98812.00;5066991;28;20032;-73
2023/04/22 08:46:08;;;;;;;9.18;6.43;;;;;;;20.73;38.79;98788.63;5066816;28;20040;-73
2023/04/22 08:48:34;;;;;;;10.50;6.88;;;;;;;20.82;38.26;98793.88;5065074;28;20293;-72
2023/04/22 08:51:03;;;;;;;7.97;5.53;;;;;;;21.02;38.13;98809.75;5066988;28;20323;-73
2023/04/22 08:53:31;;;;;;;10.88;5.25;;;;;;;21.12;38.15;98805.09;5066552;28;20056;-72
2023/04/22 08:55:58;;;;;;;8.57;5.35;;;;;;;21.16;37.69;98809.13;5066523;28;20236;-73
2023/04/22 08:58:25;;;;;;;10.35;5.45;;;;;;;21.25;38.08;98810.00;5066526;28;20181;-72
2023/04/22 09:00:52;;;;;;;10.98;6.72;;;;;;;21.30;37.94;98796.88;5065630;28;20116;-73
2023/04/22 09:03:20;;;;;;;10.27;5.47;;;;;;;21.23;37.86;98807.47;5066438;28;20443;-73
2023/04/22 09:05:49;;;;;;;9.98;5.57;;;;;;;21.23;38.04;98806.63;5065560;28;20051;-72
2023/04/22 09:08:18;;;;;;;10.05;5.22;;;;;;;21.17;37.52;98807.28;5066206;28;20041;-73
2023/04/22 09:10:45;;;;;;;9.52;4.97;;;;;;;21.23;37.91;98796.69;5065412;28;20049;-73
2023/04/22 09:13:13;;;;;;;9.55;5.22;;;;;;;20.55;37.80;98709.81;5066265;28;20068;-73
2023/04/22 09:15:40;;;;;;;9.82;4.65;;;;;;;21.24;37.79;98798.38;5066472;28;20331;-72
2023/04/22 09:18:09;;;;;;;9.73;4.95;;;;;;;21.31;37.14;98788.63;5066401;28;20032;-73
2023/04/22 09:20:36;;;;;;;6.15;4.47;;;;;;;21.26;37.47;98796.38;5066379;28;20331;-72
2023/04/22 09:23:04;;;;;;;7.55;4.60;;;;;;;21.17;37.67;98786.56;5066114;28;20053;-72
2023/04/22 09:25:34;;;;;;;9.30;4.18;;;;;;;21.14;36.87;98760.81;5066361;28;20285;-73
2023/04/22 09:28:02;;;;;;;11.82;4.82;;;;;;;21.44;37.03;98791.66;5066224;28;20041;-73
2023/04/22 09:30:30;;;;;;;15.18;5.47;;;;;;;21.46;37.42;98791.50;5066104;28;20288;-73
2023/04/22 09:32:58;;;;;;;9.23;5.03;;;;;;;21.45;37.18;98789.81;5065752;28;20061;-73
2023/04/22 09:35:27;;;;;;;6.80;4.80;;;;;;;21.36;37.03;98769.25;5065612;28;20324;-73
2023/04/22 09:37:54;;;;;;;8.15;4.93;;;;;;;21.53;37.26;98787.13;5065980;28;20041;-72
2023/04/22 09:40:21;;;;;;;9.73;5.03;;;;;;;21.58;36.85;98783.94;5065690;28;20051;-73
2023/04/22 09:42:51;;;;;;;8.52;4.35;;;;;;;21.54;36.60;98759.16;5065715;28;20044;-73
2023/04/22 09:45:32;;;;;;;6.13;4.32;;;;;;;21.34;35.22;98738.94;5065664;28;20183;-72
2023/04/22 09:48:01;;;;;;;8.32;5.35;;;;;;;21.45;36.67;98761.00;5065592;28;20158;-73
2023/04/22 09:50:30;;;;;;;8.38;4.20;;;;;;;21.68;36.88;98777.34;5065486;28;20321;-73
2023/04/22 09:52:59;;;;;;;7.70;4.30;;;;;;;21.66;36.56;98781.22;5065669;28;20053;-72
2023/04/22 09:55:27;;;;;;;9.40;5.30;;;;;;;21.52;36.76;98780.03;5065590;28;20108;-73
2023/04/22 09:57:57;;;;;;;10.82;4.82;;;;;;;21.49;36.19;98766.91;5065378;28;20040;-73
2023/04/22 10:00:27;;;;;;;6.45;3.88;;;;;;;21.46;36.52;98773.47;5065795;28;20047;-73
2023/04/22 10:02:54;;;;;;;4.60;3.60;;;;;;;21.49;36.61;98766.06;5065215;28;20061;-72
2023/04/22 10:05:21;;;;;;;9.48;4.68;;;;;;;21.60;36.24;98760.34;5065205;28;20029;-72
2023/04/22 10:07:48;;;;;;;11.27;4.90;;;;;;;21.67;36.25;98762.19;5065232;28;20041;-73
2023/04/22 10:10:14;;;;;;;9.73;4.13;;;;;;;21.72;36.05;98765.22;5065466;28;20037;-73
2023/04/22 10:12:42;;;;;;;7.20;3.70;;;;;;;21.20;35.96;98713.50;5065344;28;20192;-72
2023/04/22 10:15:11;;;;;;;8.05;3.65;;;;;;;21.41;36.01;98753.41;5064902;28;20297;-72
2023/04/22 10:17:40;;;;;;;9.40;4.00;;;;;;;21.51;36.01;98761.34;5065251;28;20045;-72
2023/04/22 10:20:13;;;;;;;5.78;3.83;;;;;;;21.58;35.78;98751.56;5064193;28;20273;-72
2023/04/22 10:22:41;;;;;;;6.45;4.47;;;;;;;21.67;35.79;98751.41;5064296;28;20049;-71
2023/04/22 10:25:13;;;;;;;7.72;4.03;;;;;;;21.72;34.71;98742.78;5064435;28;20041;-71
2023/04/22 10:27:40;;;;;;;6.03;3.58;;;;;;;21.52;35.35;98744.16;5065445;28;20041;-72
2023/04/22 10:30:11;;;;;;;8.77;3.80;;;;;;;21.22;35.22;98754.59;5065269;28;20103;-72
2023/04/22 10:32:38;;;;;;;7.95;4.18;;;;;;;20.78;35.70;98710.88;5064904;28;20064;-72
2023/04/22 10:35:13;;;;;;;7.15;3.63;;;;;;;21.02;35.08;98731.63;5064491;28;20052;-72
2023/04/22 10:37:44;;;;;;;5.95;3.53;;;;;;;21.02;35.04;98718.16;5064940;28;20044;-72
2023/04/22 10:40:15;;;;;;;7.80;4.07;;;;;;;21.10;35.69;98748.69;5065275;28;20040;-71
2023/04/22 10:42:46;;;;;;;7.03;3.70;;;;;;;20.79;35.96;98702.63;5064862;28;20268;-71
2023/04/22 10:45:15;;;;;;;8.05;3.50;;;;;;;20.88;36.15;98719.66;5064840;28;20119;-71
2023/04/22 10:47:42;;;;;;;6.57;4.20;;;;;;;21.15;36.05;98740.09;5065019;28;20037;-72
2023/04/22 10:50:21;;;;;;;9.02;4.03;;;;;;;21.29;35.10;98731.34;5065095;28;20056;-72
2023/04/22 10:52:50;;;;;;;6.05;3.30;;;;;;;21.46;35.55;98730.34;5064239;28;20051;-72
2023/04/22 10:55:17;;;;;;;5.97;3.80;;;;;;;21.57;35.59;98733.72;5064894;28;20309;-71
2023/04/22 10:57:45;;;;;;;8.38;3.90;;;;;;;21.48;35.36;98727.47;5065085;28;20047;-72
2023/04/22 11:00:39;;;;;;;5.95;3.78;;;;;;;21.30;34.60;98738.41;5064810;28;20086;-71
2023/04/22 11:03:15;;;;;;;5.95;3.92;;;;;;;21.17;34.70;98742.63;5065081;28;20232;-72
2023/04/22 11:05:42;;;;;;;5.95;4.50;;;;;;;20.60;35.63;98649.06;5064499;28;20040;-72
2023/04/22 11:08:13;;;;;;;6.72;4.07;;;;;;;20.97;35.49;98733.97;5064940;28;20108;-71
2023/04/22 11:10:42;;;;;;;5.72;4.32;;;;;;;20.89;36.03;98737.50;5066248;28;20056;-72
2023/04/22 11:13:11;;;;;;;7.90;5.22;;;;;;;20.44;35.93;98684.03;5068870;28;20103;-72
2023/04/22 11:15:42;;;;;;;5.85;3.88;;;;;;;20.82;35.94;98715.75;5068232;28;20201;-72
2023/04/22 11:18:20;;;;;;;5.97;3.85;;;;;;;20.91;34.94;98711.22;5069031;28;20112;-72
2023/04/22 11:20:48;;;;;;;5.40;3.65;;;;;;;20.87;36.02;98691.03;5068317;28;20037;-71
2023/04/22 11:23:22;;;;;;;5.68;3.05;;;;;;;20.17;34.96;98561.31;5069130;28;20037;-72
2023/04/22 11:25:54;;;;;;;6.53;3.13;;;;;;;21.23;34.74;98705.06;5068826;28;20047;-72
2023/04/22 11:28:21;;;;;;;5.47;3.05;;;;;;;21.32;35.52;98701.38;5067484;28;20060;-71